sensor_id;sensor_type;location;lat;lon;timestamp;temperature;humidity
16503;DHT22;53067;48.114;11.694;2023-04-24T00:02:21;12.30;88.50
16503;DHT22;53067;48.114;11.694;2023-04-24T00:04:49;12.40;88.20
16503;DHT22;53067;48.114;11.694;2023-04-24T00:07:16;12.40;88.20
16503;DHT22;53067;48.114;11.694;2023-04-24T00:09:46;12.50;88.50
16503;DHT22;53067;48.114;11.694;2023-04-24T00:12:14;12.40;88.60
16503;DHT22;53067;48.114;11.694;2023-04-24T00:14:41;12.40;88.70
16503;DHT22;53067;48.114;11.694;2023-04-24T00:17:09;12.40;88.60
16503;DHT22;53067;48.114;11.694;2023-04-24T00:19:36;12.40;88.80
16503;DHT22;53067;48.114;11.694;2023-04-24T00:22:04;12.30;88.80
16503;DHT22;53067;48.114;11.694;2023-04-24T00:24:32;12.30;88.70
16503;DHT22;53067;48.114;11.694;2023-04-24T00:26:59;12.30;88.50
16503;DHT22;53067;48.114;11.694;2023-04-24T00:29:27;12.30;88.40
16503;DHT22;53067;48.114;11.694;2023-04-24T00:31:55;12.30;88.30
16503;DHT22;53067;48.114;11.694;2023-04-24T00:34:22;12.30;88.50
16503;DHT22;53067;48.114;11.694;2023-04-24T00:36:50;12.30;88.10
16503;DHT22;53067;48.114;11.694;2023-04-24T00:39:22;12.30;88.50
16503;DHT22;53067;48.114;11.694;2023-04-24T00:41:50;12.30;88.20
16503;DHT22;53067;48.114;11.694;2023-04-24T00:44:19;12.30;88.20
16503;DHT22;53067;48.114;11.694;2023-04-24T00:46:46;12.30;88.60
16503;DHT22;53067;48.114;11.694;2023-04-24T00:49:16;12.30;88.40
16503;DHT22;53067;48.114;11.694;2023-04-24T00:51:44;12.30;88.00
16503;DHT22;53067;48.114;11.694;2023-04-24T00:54:16;12.20;87.90
16503;DHT22;53067;48.114;11.694;2023-04-24T00:56:45;12.20;87.50
16503;DHT22;53067;48.114;11.694;2023-04-24T00:59:13;12.20;88.60
16503;DHT22;53067;48.114;11.694;2023-04-24T01:01:42;12.20;87.90
16503;DHT22;53067;48.114;11.694;2023-04-24T01:04:11;12.20;87.70
16503;DHT22;53067;48.114;11.694;2023-04-24T01:06:40;12.20;87.30
16503;DHT22;53067;48.114;11.694;2023-04-24T01:09:09;12.10;87.30
16503;DHT22;53067;48.114;11.694;2023-04-24T01:11:38;12.10;86.30
16503;DHT22;53067;48.114;11.694;2023-04-24T01:14:05;12.00;86.90
16503;DHT22;53067;48.114;11.694;2023-04-24T01:16:33;12.00;86.50
16503;DHT22;53067;48.114;11.694;2023-04-24T01:19:01;11.90;86.80
16503;DHT22;53067;48.114;11.694;2023-04-24T01:21:30;11.90;86.60
16503;DHT22;53067;48.114;11.694;2023-04-24T01:23:58;11.90;86.90
16503;DHT22;53067;48.114;11.694;2023-04-24T01:26:25;11.90;86.50
16503;DHT22;53067;48.114;11.694;2023-04-24T01:28:53;11.80;86.80
16503;DHT22;53067;48.114;11.694;2023-04-24T01:34:09;11.80;86.70
16503;DHT22;53067;48.114;11.694;2023-04-24T01:36:38;11.80;86.40
16503;DHT22;53067;48.114;11.694;2023-04-24T01:39:06;11.70;86.50
16503;DHT22;53067;48.114;11.694;2023-04-24T01:41:34;11.80;86.10
16503;DHT22;53067;48.114;11.694;2023-04-24T01:44:02;11.80;86.00
16503;DHT22;53067;48.114;11.694;2023-04-24T01:46:30;11.80;85.90
16503;DHT22;53067;48.114;11.694;2023-04-24T01:48:59;11.80;86.00
16503;DHT22;53067;48.114;11.694;2023-04-24T01:51:27;11.70;85.00
16503;DHT22;53067;48.114;11.694;2023-04-24T01:53:55;11.70;85.20
16503;DHT22;53067;48.114;11.694;2023-04-24T01:56:22;11.70;85.40
16503;DHT22;53067;48.114;11.694;2023-04-24T01:58:52;11.80;85.40
16503;DHT22;53067;48.114;11.694;2023-04-24T02:01:20;11.70;84.90
16503;DHT22;53067;48.114;11.694;2023-04-24T02:03:48;11.70;85.00
16503;DHT22;53067;48.114;11.694;2023-04-24T02:06:15;11.70;85.20
16503;DHT22;53067;48.114;11.694;2023-04-24T02:08:43;11.70;85.00
16503;DHT22;53067;48.114;11.694;2023-04-24T02:11:10;11.70;84.60
16503;DHT22;53067;48.114;11.694;2023-04-24T02:13:38;11.70;84.70
16503;DHT22;53067;48.114;11.694;2023-04-24T02:16:06;11.70;84.60
16503;DHT22;53067;48.114;11.694;2023-04-24T02:18:33;11.80;84.60
16503;DHT22;53067;48.114;11.694;2023-04-24T02:21:01;11.70;85.30
16503;DHT22;53067;48.114;11.694;2023-04-24T02:23:28;11.70;84.50
16503;DHT22;53067;48.114;11.694;2023-04-24T02:25:56;11.70;84.60
16503;DHT22;53067;48.114;11.694;2023-04-24T02:28:23;11.60;84.30
16503;DHT22;53067;48.114;11.694;2023-04-24T02:30:51;11.60;84.30
16503;DHT22;53067;48.114;11.694;2023-04-24T02:33:19;11.50;84.60
16503;DHT22;53067;48.114;11.694;2023-04-24T02:35:47;11.40;84.80
16503;DHT22;53067;48.114;11.694;2023-04-24T02:38:14;11.40;84.70
16503;DHT22;53067;48.114;11.694;2023-04-24T02:40:42;11.50;85.00
16503;DHT22;53067;48.114;11.694;2023-04-24T02:43:09;11.50;84.90
16503;DHT22;53067;48.114;11.694;2023-04-24T02:45:37;11.40;85.20
16503;DHT22;53067;48.114;11.694;2023-04-24T02:48:05;11.40;84.90
16503;DHT22;53067;48.114;11.694;2023-04-24T02:50:32;11.40;84.70
16503;DHT22;53067;48.114;11.694;2023-04-24T02:53:00;11.30;85.00
16503;DHT22;53067;48.114;11.694;2023-04-24T02:55:27;11.40;85.70
16503;DHT22;53067;48.114;11.694;2023-04-24T02:57:55;11.30;85.10
16503;DHT22;53067;48.114;11.694;2023-04-24T03:00:22;11.30;85.80
16503;DHT22;53067;48.114;11.694;2023-04-24T03:02:50;11.40;86.40
16503;DHT22;53067;48.114;11.694;2023-04-24T03:05:17;11.40;85.30
16503;DHT22;53067;48.114;11.694;2023-04-24T03:07:45;11.40;85.10
16503;DHT22;53067;48.114;11.694;2023-04-24T03:10:12;11.40;85.40
16503;DHT22;53067;48.114;11.694;2023-04-24T03:12:40;11.30;85.60
16503;DHT22;53067;48.114;11.694;2023-04-24T03:15:08;11.30;86.30
16503;DHT22;53067;48.114;11.694;2023-04-24T03:17:36;11.30;86.00
16503;DHT22;53067;48.114;11.694;2023-04-24T03:20:10;11.30;86.40
16503;DHT22;53067;48.114;11.694;2023-04-24T03:22:38;11.30;86.70
16503;DHT22;53067;48.114;11.694;2023-04-24T03:25:06;11.30;86.80
16503;DHT22;53067;48.114;11.694;2023-04-24T03:27:35;11.30;86.60
16503;DHT22;53067;48.114;11.694;2023-04-24T03:30:04;11.30;87.00
16503;DHT22;53067;48.114;11.694;2023-04-24T03:32:32;11.30;86.90
16503;DHT22;53067;48.114;11.694;2023-04-24T03:34:59;11.20;86.50
16503;DHT22;53067;48.114;11.694;2023-04-24T03:37:27;11.20;86.70
16503;DHT22;53067;48.114;11.694;2023-04-24T03:39:54;11.20;87.30
16503;DHT22;53067;48.114;11.694;2023-04-24T03:42:22;11.20;87.40
16503;DHT22;53067;48.114;11.694;2023-04-24T03:44:49;11.10;87.60
16503;DHT22;53067;48.114;11.694;2023-04-24T03:47:17;11.10;87.80
16503;DHT22;53067;48.114;11.694;2023-04-24T03:49:44;11.20;88.30
16503;DHT22;53067;48.114;11.694;2023-04-24T03:52:12;11.20;88.10
16503;DHT22;53067;48.114;11.694;2023-04-24T03:54:39;11.10;88.30
16503;DHT22;53067;48.114;11.694;2023-04-24T03:57:07;11.10;88.30
16503;DHT22;53067;48.114;11.694;2023-04-24T03:59:34;11.10;88.50
16503;DHT22;53067;48.114;11.694;2023-04-24T04:02:02;11.10;88.80
16503;DHT22;53067;48.114;11.694;2023-04-24T04:04:29;11.10;88.90
16503;DHT22;53067;48.114;11.694;2023-04-24T04:06:57;11.10;88.90
16503;DHT22;53067;48.114;11.694;2023-04-24T04:09:26;11.10;88.90
16503;DHT22;53067;48.114;11.694;2023-04-24T04:11:54;11.10;88.90
16503;DHT22;53067;48.114;11.694;2023-04-24T04:14:22;11.10;88.80
16503;DHT22;53067;48.114;11.694;2023-04-24T04:16:49;11.10;88.50
16503;DHT22;53067;48.114;11.694;2023-04-24T04:19:17;11.10;88.60
16503;DHT22;53067;48.114;11.694;2023-04-24T04:21:45;11.10;88.30
16503;DHT22;53067;48.114;11.694;2023-04-24T04:24:12;11.10;88.50
16503;DHT22;53067;48.114;11.694;2023-04-24T04:26:40;11.10;88.40
16503;DHT22;53067;48.114;11.694;2023-04-24T04:29:07;11.10;88.40
16503;DHT22;53067;48.114;11.694;2023-04-24T04:31:36;11.10;88.40
16503;DHT22;53067;48.114;11.694;2023-04-24T04:34:03;11.10;88.50
16503;DHT22;53067;48.114;11.694;2023-04-24T04:36:31;11.10;88.50
16503;DHT22;53067;48.114;11.694;2023-04-24T04:38:59;11.10;88.50
16503;DHT22;53067;48.114;11.694;2023-04-24T04:41:26;11.10;88.50
16503;DHT22;53067;48.114;11.694;2023-04-24T04:43:54;11.10;88.60
16503;DHT22;53067;48.114;11.694;2023-04-24T04:46:23;11.10;88.30
16503;DHT22;53067;48.114;11.694;2023-04-24T04:48:53;11.10;88.40
16503;DHT22;53067;48.114;11.694;2023-04-24T04:51:21;11.10;88.20
16503;DHT22;53067;48.114;11.694;2023-04-24T04:53:48;11.10;88.30
16503;DHT22;53067;48.114;11.694;2023-04-24T04:56:15;11.10;88.30
16503;DHT22;53067;48.114;11.694;2023-04-24T04:58:43;11.10;88.40
16503;DHT22;53067;48.114;11.694;2023-04-24T05:01:11;11.10;88.20
16503;DHT22;53067;48.114;11.694;2023-04-24T05:03:38;11.10;88.30
16503;DHT22;53067;48.114;11.694;2023-04-24T05:06:06;11.10;88.20
16503;DHT22;53067;48.114;11.694;2023-04-24T05:08:34;11.10;88.10
16503;DHT22;53067;48.114;11.694;2023-04-24T05:11:01;11.10;88.00
16503;DHT22;53067;48.114;11.694;2023-04-24T05:13:29;11.10;87.90
16503;DHT22;53067;48.114;11.694;2023-04-24T05:15:57;11.20;87.60
16503;DHT22;53067;48.114;11.694;2023-04-24T05:18:25;11.20;87.20
16503;DHT22;53067;48.114;11.694;2023-04-24T05:20:53;11.10;87.00
16503;DHT22;53067;48.114;11.694;2023-04-24T05:23:20;11.10;87.30
16503;DHT22;53067;48.114;11.694;2023-04-24T05:25:48;11.20;87.20
16503;DHT22;53067;48.114;11.694;2023-04-24T05:28:15;11.20;87.30
16503;DHT22;53067;48.114;11.694;2023-04-24T05:30:43;11.10;87.20
16503;DHT22;53067;48.114;11.694;2023-04-24T05:33:11;11.10;87.20
16503;DHT22;53067;48.114;11.694;2023-04-24T05:35:39;11.10;87.30
16503;DHT22;53067;48.114;11.694;2023-04-24T05:38:08;11.10;87.10
16503;DHT22;53067;48.114;11.694;2023-04-24T05:40:36;11.10;87.00
16503;DHT22;53067;48.114;11.694;2023-04-24T05:43:03;11.20;87.10
16503;DHT22;53067;48.114;11.694;2023-04-24T05:45:31;11.20;86.90
16503;DHT22;53067;48.114;11.694;2023-04-24T05:47:59;11.20;86.40
16503;DHT22;53067;48.114;11.694;2023-04-24T05:50:26;11.20;85.90
16503;DHT22;53067;48.114;11.694;2023-04-24T05:52:54;11.20;86.40
16503;DHT22;53067;48.114;11.694;2023-04-24T05:55:22;11.20;85.90
16503;DHT22;53067;48.114;11.694;2023-04-24T05:57:50;11.20;86.60
16503;DHT22;53067;48.114;11.694;2023-04-24T06:00:18;11.30;86.40
16503;DHT22;53067;48.114;11.694;2023-04-24T06:02:47;11.30;86.00
16503;DHT22;53067;48.114;11.694;2023-04-24T06:05:33;11.30;86.10
16503;DHT22;53067;48.114;11.694;2023-04-24T06:08:01;11.40;85.90
16503;DHT22;53067;48.114;11.694;2023-04-24T06:10:28;11.40;85.50
16503;DHT22;53067;48.114;11.694;2023-04-24T06:12:56;11.40;85.30
16503;DHT22;53067;48.114;11.694;2023-04-24T06:15:27;11.50;85.30
16503;DHT22;53067;48.114;11.694;2023-04-24T06:17:54;11.50;84.90
16503;DHT22;53067;48.114;11.694;2023-04-24T06:20:22;11.60;85.20
16503;DHT22;53067;48.114;11.694;2023-04-24T06:22:49;11.60;85.20
16503;DHT22;53067;48.114;11.694;2023-04-24T06:25:17;11.60;84.50
16503;DHT22;53067;48.114;11.694;2023-04-24T06:27:45;11.70;84.40
16503;DHT22;53067;48.114;11.694;2023-04-24T06:30:13;11.70;83.50
16503;DHT22;53067;48.114;11.694;2023-04-24T06:32:41;11.60;83.70
16503;DHT22;53067;48.114;11.694;2023-04-24T06:35:08;11.60;83.90
16503;DHT22;53067;48.114;11.694;2023-04-24T06:37:39;11.60;83.90
16503;DHT22;53067;48.114;11.694;2023-04-24T06:40:07;11.60;84.00
16503;DHT22;53067;48.114;11.694;2023-04-24T06:42:36;11.60;83.90
16503;DHT22;53067;48.114;11.694;2023-04-24T06:45:04;11.60;84.10
16503;DHT22;53067;48.114;11.694;2023-04-24T06:47:31;11.60;83.90
16503;DHT22;53067;48.114;11.694;2023-04-24T06:49:59;11.60;83.20
16503;DHT22;53067;48.114;11.694;2023-04-24T06:52:26;11.60;83.30
16503;DHT22;53067;48.114;11.694;2023-04-24T06:55:02;11.70;83.40
16503;DHT22;53067;48.114;11.694;2023-04-24T06:57:30;11.80;83.10
16503;DHT22;53067;48.114;11.694;2023-04-24T06:59:57;11.80;81.70
16503;DHT22;53067;48.114;11.694;2023-04-24T07:02:25;11.70;82.30
16503;DHT22;53067;48.114;11.694;2023-04-24T07:04:52;11.70;82.30
16503;DHT22;53067;48.114;11.694;2023-04-24T07:07:20;11.80;82.90
16503;DHT22;53067;48.114;11.694;2023-04-24T07:09:47;11.80;82.00
16503;DHT22;53067;48.114;11.694;2023-04-24T07:12:15;11.90;81.80
16503;DHT22;53067;48.114;11.694;2023-04-24T07:14:43;11.90;82.00
16503;DHT22;53067;48.114;11.694;2023-04-24T07:17:11;12.00;81.90
16503;DHT22;53067;48.114;11.694;2023-04-24T07:19:39;12.00;80.60
16503;DHT22;53067;48.114;11.694;2023-04-24T07:22:07;12.00;80.40
16503;DHT22;53067;48.114;11.694;2023-04-24T07:24:34;12.10;81.10
16503;DHT22;53067;48.114;11.694;2023-04-24T07:27:02;12.20;79.20
16503;DHT22;53067;48.114;11.694;2023-04-24T07:29:29;12.20;78.90
16503;DHT22;53067;48.114;11.694;2023-04-24T07:31:57;12.20;80.20
16503;DHT22;53067;48.114;11.694;2023-04-24T07:34:25;12.30;78.30
16503;DHT22;53067;48.114;11.694;2023-04-24T07:36:52;12.30;78.30
16503;DHT22;53067;48.114;11.694;2023-04-24T07:39:20;12.40;79.60
16503;DHT22;53067;48.114;11.694;2023-04-24T07:41:47;12.50;79.00
16503;DHT22;53067;48.114;11.694;2023-04-24T07:44:15;12.50;77.30
16503;DHT22;53067;48.114;11.694;2023-04-24T07:46:42;12.60;77.70
16503;DHT22;53067;48.114;11.694;2023-04-24T07:49:10;12.60;77.20
16503;DHT22;53067;48.114;11.694;2023-04-24T07:51:37;12.60;77.10
16503;DHT22;53067;48.114;11.694;2023-04-24T07:54:05;12.60;76.80
16503;DHT22;53067;48.114;11.694;2023-04-24T07:56:33;12.70;76.30
16503;DHT22;53067;48.114;11.694;2023-04-24T07:59:02;12.60;77.00
16503;DHT22;53067;48.114;11.694;2023-04-24T08:01:29;12.70;76.10
16503;DHT22;53067;48.114;11.694;2023-04-24T08:03:57;12.60;75.70
16503;DHT22;53067;48.114;11.694;2023-04-24T08:06:24;12.50;75.80
16503;DHT22;53067;48.114;11.694;2023-04-24T08:08:54;12.50;76.40
16503;DHT22;53067;48.114;11.694;2023-04-24T08:11:21;12.50;76.70
16503;DHT22;53067;48.114;11.694;2023-04-24T08:13:49;12.50;76.90
16503;DHT22;53067;48.114;11.694;2023-04-24T08:16:16;12.50;76.40
16503;DHT22;53067;48.114;11.694;2023-04-24T08:18:44;12.50;76.00
16503;DHT22;53067;48.114;11.694;2023-04-24T08:21:11;12.50;76.40
16503;DHT22;53067;48.114;11.694;2023-04-24T08:23:41;12.60;76.10
16503;DHT22;53067;48.114;11.694;2023-04-24T08:26:08;12.60;75.60
16503;DHT22;53067;48.114;11.694;2023-04-24T08:28:38;12.60;74.80
16503;DHT22;53067;48.114;11.694;2023-04-24T08:31:06;12.60;75.30
16503;DHT22;53067;48.114;11.694;2023-04-24T08:33:34;12.70;75.60
16503;DHT22;53067;48.114;11.694;2023-04-24T08:36:05;12.70;75.40
16503;DHT22;53067;48.114;11.694;2023-04-24T08:38:33;12.60;74.90
16503;DHT22;53067;48.114;11.694;2023-04-24T08:41:01;12.50;74.70
16503;DHT22;53067;48.114;11.694;2023-04-24T08:43:29;12.50;76.50
16503;DHT22;53067;48.114;11.694;2023-04-24T08:45:57;12.40;77.60
16503;DHT22;53067;48.114;11.694;2023-04-24T08:48:27;12.50;78.60
16503;DHT22;53067;48.114;11.694;2023-04-24T08:50:56;12.40;77.40
16503;DHT22;53067;48.114;11.694;2023-04-24T08:53:25;12.30;78.60
16503;DHT22;53067;48.114;11.694;2023-04-24T08:55:54;12.10;83.20
16503;DHT22;53067;48.114;11.694;2023-04-24T08:58:25;11.80;82.10
16503;DHT22;53067;48.114;11.694;2023-04-24T09:00:54;11.70;84.00
16503;DHT22;53067;48.114;11.694;2023-04-24T09:03:22;11.60;82.90
16503;DHT22;53067;48.114;11.694;2023-04-24T09:05:52;11.60;82.00
16503;DHT22;53067;48.114;11.694;2023-04-24T09:08:24;11.60;79.70
16503;DHT22;53067;48.114;11.694;2023-04-24T09:10:52;11.70;76.50
16503;DHT22;53067;48.114;11.694;2023-04-24T09:13:21;11.70;76.30
16503;DHT22;53067;48.114;11.694;2023-04-24T09:15:48;11.70;76.10
16503;DHT22;53067;48.114;11.694;2023-04-24T09:18:17;11.70;74.90
16503;DHT22;53067;48.114;11.694;2023-04-24T09:21:01;11.70;73.90
16503;DHT22;53067;48.114;11.694;2023-04-24T09:23:32;11.70;74.80
16503;DHT22;53067;48.114;11.694;2023-04-24T09:26:01;11.70;74.30
16503;DHT22;53067;48.114;11.694;2023-04-24T09:28:34;11.80;74.50
16503;DHT22;53067;48.114;11.694;2023-04-24T09:31:07;11.80;75.30
16503;DHT22;53067;48.114;11.694;2023-04-24T09:33:35;11.80;75.00
16503;DHT22;53067;48.114;11.694;2023-04-24T09:36:04;11.80;75.60
16503;DHT22;53067;48.114;11.694;2023-04-24T09:38:34;11.90;74.30
16503;DHT22;53067;48.114;11.694;2023-04-24T09:41:05;12.00;73.30
16503;DHT22;53067;48.114;11.694;2023-04-24T09:43:33;12.00;74.10
16503;DHT22;53067;48.114;11.694;2023-04-24T09:46:06;12.00;74.20
16503;DHT22;53067;48.114;11.694;2023-04-24T09:48:37;12.10;73.50
16503;DHT22;53067;48.114;11.694;2023-04-24T09:51:06;12.20;73.30
16503;DHT22;53067;48.114;11.694;2023-04-24T09:53:35;12.30;72.40
16503;DHT22;53067;48.114;11.694;2023-04-24T09:56:07;12.40;72.10
16503;DHT22;53067;48.114;11.694;2023-04-24T09:58:36;12.50;71.00
16503;DHT22;53067;48.114;11.694;2023-04-24T10:01:04;12.70;71.10
16503;DHT22;53067;48.114;11.694;2023-04-24T10:03:33;12.70;70.30
16503;DHT22;53067;48.114;11.694;2023-04-24T10:06:02;12.70;70.00
16503;DHT22;53067;48.114;11.694;2023-04-24T10:08:36;12.70;70.60
16503;DHT22;53067;48.114;11.694;2023-04-24T10:11:04;12.70;71.00
16503;DHT22;53067;48.114;11.694;2023-04-24T10:13:33;12.80;71.30
16503;DHT22;53067;48.114;11.694;2023-04-24T10:16:01;12.80;69.80
16503;DHT22;53067;48.114;11.694;2023-04-24T10:18:30;12.80;70.10
16503;DHT22;53067;48.114;11.694;2023-04-24T10:21:00;12.80;69.70
16503;DHT22;53067;48.114;11.694;2023-04-24T10:23:30;12.90;70.30
16503;DHT22;53067;48.114;11.694;2023-04-24T10:25:58;13.00;70.80
16503;DHT22;53067;48.114;11.694;2023-04-24T10:28:28;13.10;69.70
16503;DHT22;53067;48.114;11.694;2023-04-24T10:30:58;13.20;69.30
16503;DHT22;53067;48.114;11.694;2023-04-24T10:33:27;13.30;68.30
16503;DHT22;53067;48.114;11.694;2023-04-24T10:35:55;13.30;68.50
16503;DHT22;53067;48.114;11.694;2023-04-24T10:38:29;13.40;67.40
16503;DHT22;53067;48.114;11.694;2023-04-24T10:41:18;13.40;67.90
16503;DHT22;53067;48.114;11.694;2023-04-24T10:43:33;13.40;67.60
16503;DHT22;53067;48.114;11.694;2023-04-24T10:46:22;13.40;67.00
16503;DHT22;53067;48.114;11.694;2023-04-24T10:48:53;13.40;67.80
16503;DHT22;53067;48.114;11.694;2023-04-24T10:51:42;13.50;67.10
16503;DHT22;53067;48.114;11.694;2023-04-24T10:53:57;13.50;67.60
16503;DHT22;53067;48.114;11.694;2023-04-24T10:56:24;13.60;67.50
16503;DHT22;53067;48.114;11.694;2023-04-24T10:58:53;13.60;65.40
16503;DHT22;53067;48.114;11.694;2023-04-24T11:01:31;13.50;66.00
16503;DHT22;53067;48.114;11.694;2023-04-24T11:04:03;13.50;67.90
16503;DHT22;53067;48.114;11.694;2023-04-24T11:06:32;13.40;69.50
16503;DHT22;53067;48.114;11.694;2023-04-24T11:09:04;12.90;85.10
16503;DHT22;53067;48.114;11.694;2023-04-24T11:11:34;12.00;78.60
16503;DHT22;53067;48.114;11.694;2023-04-24T11:14:03;11.60;81.00
16503;DHT22;53067;48.114;11.694;2023-04-24T11:21:59;11.30;84.80
16503;DHT22;53067;48.114;11.694;2023-04-24T11:29:39;11.70;85.60
16503;DHT22;53067;48.114;11.694;2023-04-24T11:32:27;11.90;80.10
16503;DHT22;53067;48.114;11.694;2023-04-24T11:35:06;12.10;82.10
16503;DHT22;53067;48.114;11.694;2023-04-24T11:37:36;12.30;82.30
16503;DHT22;53067;48.114;11.694;2023-04-24T11:40:06;12.60;80.50
16503;DHT22;53067;48.114;11.694;2023-04-24T11:42:39;12.80;75.70
16503;DHT22;53067;48.114;11.694;2023-04-24T11:45:08;12.90;77.20
16503;DHT22;53067;48.114;11.694;2023-04-24T11:47:36;13.00;76.00
16503;DHT22;53067;48.114;11.694;2023-04-24T11:50:07;13.10;76.60
16503;DHT22;53067;48.114;11.694;2023-04-24T11:52:42;13.30;74.60
16503;DHT22;53067;48.114;11.694;2023-04-24T11:57:50;13.50;73.60
16503;DHT22;53067;48.114;11.694;2023-04-24T12:00:20;13.60;73.80
16503;DHT22;53067;48.114;11.694;2023-04-24T12:02:48;13.80;72.40
16503;DHT22;53067;48.114;11.694;2023-04-24T12:05:22;13.80;72.40
16503;DHT22;53067;48.114;11.694;2023-04-24T12:07:49;13.90;72.40
16503;DHT22;53067;48.114;11.694;2023-04-24T12:10:21;13.90;70.20
16503;DHT22;53067;48.114;11.694;2023-04-24T12:12:50;13.80;69.50
16503;DHT22;53067;48.114;11.694;2023-04-24T12:15:19;13.70;69.70
16503;DHT22;53067;48.114;11.694;2023-04-24T12:17:47;13.70;68.90
16503;DHT22;53067;48.114;11.694;2023-04-24T12:20:15;13.50;70.40
16503;DHT22;53067;48.114;11.694;2023-04-24T12:22:51;13.40;70.10
16503;DHT22;53067;48.114;11.694;2023-04-24T12:25:23;13.40;69.80
16503;DHT22;53067;48.114;11.694;2023-04-24T12:30:35;13.60;69.50
16503;DHT22;53067;48.114;11.694;2023-04-24T12:33:04;13.60;68.20
16503;DHT22;53067;48.114;11.694;2023-04-24T12:35:33;13.50;67.60
16503;DHT22;53067;48.114;11.694;2023-04-24T12:38:12;13.40;68.40
16503;DHT22;53067;48.114;11.694;2023-04-24T12:40:41;13.40;68.40
16503;DHT22;53067;48.114;11.694;2023-04-24T12:43:20;13.50;69.40
16503;DHT22;53067;48.114;11.694;2023-04-24T12:45:45;13.50;69.70
16503;DHT22;53067;48.114;11.694;2023-04-24T12:48:12;13.80;70.10
16503;DHT22;53067;48.114;11.694;2023-04-24T12:50:43;14.10;69.40
16503;DHT22;53067;48.114;11.694;2023-04-24T12:53:11;14.20;67.00
16503;DHT22;53067;48.114;11.694;2023-04-24T12:55:38;14.20;66.60
16503;DHT22;53067;48.114;11.694;2023-04-24T12:58:06;14.30;66.50
16503;DHT22;53067;48.114;11.694;2023-04-24T13:00:34;14.30;67.00
16503;DHT22;53067;48.114;11.694;2023-04-24T13:03:02;14.30;68.50
16503;DHT22;53067;48.114;11.694;2023-04-24T13:05:30;14.10;68.00
16503;DHT22;53067;48.114;11.694;2023-04-24T13:07:58;13.90;68.60
16503;DHT22;53067;48.114;11.694;2023-04-24T13:10:25;13.90;68.90
16503;DHT22;53067;48.114;11.694;2023-04-24T13:12:53;13.90;69.30
16503;DHT22;53067;48.114;11.694;2023-04-24T13:15:20;13.90;68.50
16503;DHT22;53067;48.114;11.694;2023-04-24T13:17:48;13.90;68.50
16503;DHT22;53067;48.114;11.694;2023-04-24T13:20:16;14.10;67.80
16503;DHT22;53067;48.114;11.694;2023-04-24T13:22:43;14.30;66.50
16503;DHT22;53067;48.114;11.694;2023-04-24T13:25:11;14.40;65.50
16503;DHT22;53067;48.114;11.694;2023-04-24T13:27:39;14.60;65.40
16503;DHT22;53067;48.114;11.694;2023-04-24T13:30:07;14.60;64.00
16503;DHT22;53067;48.114;11.694;2023-04-24T13:32:35;14.40;64.50
16503;DHT22;53067;48.114;11.694;2023-04-24T13:35:03;14.20;65.70
16503;DHT22;53067;48.114;11.694;2023-04-24T13:37:30;14.20;65.70
16503;DHT22;53067;48.114;11.694;2023-04-24T13:39:58;14.20;66.00
16503;DHT22;53067;48.114;11.694;2023-04-24T13:42:26;14.20;63.70
16503;DHT22;53067;48.114;11.694;2023-04-24T13:44:53;14.10;63.90
16503;DHT22;53067;48.114;11.694;2023-04-24T13:47:21;14.10;64.40
16503;DHT22;53067;48.114;11.694;2023-04-24T13:49:48;14.20;63.30
16503;DHT22;53067;48.114;11.694;2023-04-24T13:52:16;14.40;63.10
16503;DHT22;53067;48.114;11.694;2023-04-24T13:54:44;14.60;62.90
16503;DHT22;53067;48.114;11.694;2023-04-24T13:57:11;14.60;62.60
16503;DHT22;53067;48.114;11.694;2023-04-24T13:59:39;14.70;62.70
16503;DHT22;53067;48.114;11.694;2023-04-24T14:02:06;14.70;62.80
16503;DHT22;53067;48.114;11.694;2023-04-24T14:04:34;14.60;63.90
16503;DHT22;53067;48.114;11.694;2023-04-24T14:07:01;14.50;63.10
16503;DHT22;53067;48.114;11.694;2023-04-24T14:09:29;14.50;62.30
16503;DHT22;53067;48.114;11.694;2023-04-24T14:11:56;14.50;63.30
16503;DHT22;53067;48.114;11.694;2023-04-24T14:14:24;14.40;63.90
16503;DHT22;53067;48.114;11.694;2023-04-24T14:16:52;14.30;63.90
16503;DHT22;53067;48.114;11.694;2023-04-24T14:19:19;14.20;64.20
16503;DHT22;53067;48.114;11.694;2023-04-24T14:21:47;14.20;61.80
16503;DHT22;53067;48.114;11.694;2023-04-24T14:24:15;14.30;62.10
16503;DHT22;53067;48.114;11.694;2023-04-24T14:26:42;14.40;60.80
16503;DHT22;53067;48.114;11.694;2023-04-24T14:29:10;14.50;59.00
16503;DHT22;53067;48.114;11.694;2023-04-24T14:31:37;14.50;59.60
16503;DHT22;53067;48.114;11.694;2023-04-24T14:34:05;14.50;58.50
16503;DHT22;53067;48.114;11.694;2023-04-24T14:36:32;14.60;56.90
16503;DHT22;53067;48.114;11.694;2023-04-24T14:39:00;14.60;57.50
16503;DHT22;53067;48.114;11.694;2023-04-24T14:41:29;14.60;55.90
16503;DHT22;53067;48.114;11.694;2023-04-24T14:43:57;14.60;54.70
16503;DHT22;53067;48.114;11.694;2023-04-24T14:46:25;14.70;55.70
16503;DHT22;53067;48.114;11.694;2023-04-24T14:48:52;14.80;54.20
16503;DHT22;53067;48.114;11.694;2023-04-24T14:51:20;14.90;55.60
16503;DHT22;53067;48.114;11.694;2023-04-24T14:53:47;15.10;54.70
16503;DHT22;53067;48.114;11.694;2023-04-24T14:56:20;15.20;53.20
16503;DHT22;53067;48.114;11.694;2023-04-24T14:58:48;15.30;53.40
16503;DHT22;53067;48.114;11.694;2023-04-24T15:01:15;15.30;53.00
16503;DHT22;53067;48.114;11.694;2023-04-24T15:03:44;15.20;52.70
16503;DHT22;53067;48.114;11.694;2023-04-24T15:06:12;15.20;52.00
16503;DHT22;53067;48.114;11.694;2023-04-24T15:08:39;15.00;53.00
16503;DHT22;53067;48.114;11.694;2023-04-24T15:11:07;15.10;52.00
16503;DHT22;53067;48.114;11.694;2023-04-24T15:13:35;15.10;52.40
16503;DHT22;53067;48.114;11.694;2023-04-24T15:16:02;15.10;51.50
16503;DHT22;53067;48.114;11.694;2023-04-24T15:18:30;15.00;52.50
16503;DHT22;53067;48.114;11.694;2023-04-24T15:20:58;15.10;50.40
16503;DHT22;53067;48.114;11.694;2023-04-24T15:23:25;15.00;50.30
16503;DHT22;53067;48.114;11.694;2023-04-24T15:25:53;14.90;51.00
16503;DHT22;53067;48.114;11.694;2023-04-24T15:28:20;14.90;50.40
16503;DHT22;53067;48.114;11.694;2023-04-24T15:30:48;14.90;50.70
16503;DHT22;53067;48.114;11.694;2023-04-24T15:33:16;14.80;49.80
16503;DHT22;53067;48.114;11.694;2023-04-24T15:35:43;14.60;50.60
16503;DHT22;53067;48.114;11.694;2023-04-24T15:38:11;14.50;50.30
16503;DHT22;53067;48.114;11.694;2023-04-24T15:40:38;14.50;49.80
16503;DHT22;53067;48.114;11.694;2023-04-24T15:43:06;14.40;50.30